עמוד ראשי
METAR-TAF:

METAR-TAF

שדות תעופה :

Lakeland, פלורידה, ארצות הברית

קו רוחב: 27-59N, קו אורך: 082-01W, גובה: 43מטר

תצפית מזג אוויר נוכחית

הדו"ח נערך לפני 51דקות, בשעה 18:50 UTC
רוח 16קשר מכיוון מזרח עם משבים עד 21קשר
טמפרטורת 32 צלסיוס
לחות 49%
לחץ 1016 hPa
ראות: 16.1קילומטר
עננים פזורים בגובה 5500רגל

METAR: KLAL 171850Z 10016G21KT 10SM SCT055 32/20 A3001

זמן: 15:41 (19:41 UTC)

תחזית

הדו"ח נערך לפני 2 שעות ו 21דקות, בשעה 17:20 UTC
תחזית בתוקף מ 17 ב 18 UTC עד 18 ב 18 UTC
רוח 13קשר מכיוון מזרח עם משבים עד 23קשר
ראות: 10קילומטר
עננים פזורים בגובה 3000רגל
עננים בינוניים בגובה 25000רגל
מ 18 ב 0200UTC
רוח 8קשר מכיוון מזרח
ראות: 10קילומטר
מעט עננים בגובה 3000רגל
עננים פזורים בגובה 25000רגל
מ 18 ב 1400UTC
רוח 12קשר מכיוון מזרח עם משבים עד 22קשר
ראות: 10קילומטר
מעט עננים בגובה 4000רגל
עננים פזורים בגובה 25000רגל

TAF: KLAL 171720Z 1718/1818 09013G23KT P6SM SCT030 BKN250 FM180200 09008KT P6SM FEW030 SCT250 FM181400 09012G22KT P6SM FEW040 SCT250

תצפיות ותחזיות מזג אוויר לגבי יותר מ- 4,000 שדות תעופה ברחבי העולם. דוחות METAR ו- TAF.

התחנות הזמינות מסומנות בנקודות צהובות ואדומות על גבי המפה.

העבר את העכבר לנקודה הצבעונית על מנת לראות את שם התחנה.

לאחר מכן, לחץ כדי לראות את תוכן ואת תחזיות מזג האוויר.

כדי לשנות את המפה: לחץ על הכפתורים הירוקים עם הפלוס השחור כדי להתקרב; על הכפתור הירוק עם המקף כדי להתרחק; או בחיצים הירוקים למפות סמוכות.


METAR-TAF: